sensor_id;sensor_type;location;lat;lon;timestamp;P1;P2;P0
45990;PMS5003;31721;41.740;-88.000;2022-11-15T00:00:59;12;8;
45990;PMS5003;31721;41.740;-88.000;2022-11-15T00:03:27;13;12;
45990;PMS5003;31721;41.740;-88.000;2022-11-15T00:06:00;7;7;
45990;PMS5003;31721;41.740;-88.000;2022-11-15T00:08:30;8;7;
45990;PMS5003;31721;41.740;-88.000;2022-11-15T00:10:59;13;11;
45990;PMS5003;31721;41.740;-88.000;2022-11-15T00:13:28;16;12;
45990;PMS5003;31721;41.740;-88.000;2022-11-15T00:15:57;15;13;
45990;PMS5003;31721;41.740;-88.000;2022-11-15T00:18:26;22;17;
45990;PMS5003;31721;41.740;-88.000;2022-11-15T00:20:55;29;28;
45990;PMS5003;31721;41.740;-88.000;2022-11-15T00:23:29;25;24;
45990;PMS5003;31721;41.740;-88.000;2022-11-15T00:25:57;44;41;
45990;PMS5003;31721;41.740;-88.000;2022-11-15T00:28:26;62;55;
45990;PMS5003;31721;41.740;-88.000;2022-11-15T00:30:59;64;55;
45990;PMS5003;31721;41.740;-88.000;2022-11-15T00:33:28;59;51;
45990;PMS5003;31721;41.740;-88.000;2022-11-15T00:35:59;64;59;
45990;PMS5003;31721;41.740;-88.000;2022-11-15T00:38:30;121;103;
45990;PMS5003;31721;41.740;-88.000;2022-11-15T00:41:00;136;126;
45990;PMS5003;31721;41.740;-88.000;2022-11-15T00:43:28;114;104;
45990;PMS5003;31721;41.740;-88.000;2022-11-15T00:45:56;173;147;
45990;PMS5003;31721;41.740;-88.000;2022-11-15T00:48:25;177;149;
45990;PMS5003;31721;41.740;-88.000;2022-11-15T00:50:53;161;139;
45990;PMS5003;31721;41.740;-88.000;2022-11-15T00:53:21;166;146;
45990;PMS5003;31721;41.740;-88.000;2022-11-15T00:55:50;164;137;
45990;PMS5003;31721;41.740;-88.000;2022-11-15T00:58:17;144;131;
45990;PMS5003;31721;41.740;-88.000;2022-11-15T01:00:45;147;128;
45990;PMS5003;31721;41.740;-88.000;2022-11-15T01:03:13;144;121;
45990;PMS5003;31721;41.740;-88.000;2022-11-15T01:05:41;139;121;
45990;PMS5003;31721;41.740;-88.000;2022-11-15T01:08:12;137;121;
45990;PMS5003;31721;41.740;-88.000;2022-11-15T01:10:41;134;124;
45990;PMS5003;31721;41.740;-88.000;2022-11-15T01:13:09;128;109;
45990;PMS5003;31721;41.740;-88.000;2022-11-15T01:15:38;115;97;
45990;PMS5003;31721;41.740;-88.000;2022-11-15T01:18:07;80;72;
45990;PMS5003;31721;41.740;-88.000;2022-11-15T01:20:38;81;70;
45990;PMS5003;31721;41.740;-88.000;2022-11-15T01:23:07;65;55;
45990;PMS5003;31721;41.740;-88.000;2022-11-15T01:25:35;43;41;
45990;PMS5003;31721;41.740;-88.000;2022-11-15T01:28:04;40;35;
45990;PMS5003;31721;41.740;-88.000;2022-11-15T01:30:32;25;20;
45990;PMS5003;31721;41.740;-88.000;2022-11-15T01:33:00;22;17;
45990;PMS5003;31721;41.740;-88.000;2022-11-15T01:35:27;30;28;
45990;PMS5003;31721;41.740;-88.000;2022-11-15T01:37:56;21;21;
45990;PMS5003;31721;41.740;-88.000;2022-11-15T01:40:24;14;12;
45990;PMS5003;31721;41.740;-88.000;2022-11-15T01:42:52;14;14;
45990;PMS5003;31721;41.740;-88.000;2022-11-15T01:45:20;12;12;
45990;PMS5003;31721;41.740;-88.000;2022-11-15T01:47:50;10;10;
45990;PMS5003;31721;41.740;-88.000;2022-11-15T01:50:22;15;12;
45990;PMS5003;31721;41.740;-88.000;2022-11-15T01:52:52;14;11;
45990;PMS5003;31721;41.740;-88.000;2022-11-15T01:55:21;14;11;
45990;PMS5003;31721;41.740;-88.000;2022-11-15T01:57:53;12;7;
45990;PMS5003;31721;41.740;-88.000;2022-11-15T02:00:23;16;15;
45990;PMS5003;31721;41.740;-88.000;2022-11-15T02:02:51;15;11;
45990;PMS5003;31721;41.740;-88.000;2022-11-15T02:05:19;11;10;
45990;PMS5003;31721;41.740;-88.000;2022-11-15T02:07:48;12;11;
45990;PMS5003;31721;41.740;-88.000;2022-11-15T02:10:18;11;8;
45990;PMS5003;31721;41.740;-88.000;2022-11-15T02:12:47;11;7;
45990;PMS5003;31721;41.740;-88.000;2022-11-15T02:15:16;11;11;
45990;PMS5003;31721;41.740;-88.000;2022-11-15T02:18:05;10;10;
45990;PMS5003;31721;41.740;-88.000;2022-11-15T02:20:41;11;10;
45990;PMS5003;31721;41.740;-88.000;2022-11-15T02:23:26;10;9;
45990;PMS5003;31721;41.740;-88.000;2022-11-15T02:26:17;7;7;
45990;PMS5003;31721;41.740;-88.000;2022-11-15T02:29:05;11;10;
45990;PMS5003;31721;41.740;-88.000;2022-11-15T02:31:39;9;9;
45990;PMS5003;31721;41.740;-88.000;2022-11-15T02:34:16;9;7;
45990;PMS5003;31721;41.740;-88.000;2022-11-15T02:36:54;9;7;
45990;PMS5003;31721;41.740;-88.000;2022-11-15T02:39:34;10;9;
45990;PMS5003;31721;41.740;-88.000;2022-11-15T02:42:07;11;10;
45990;PMS5003;31721;41.740;-88.000;2022-11-15T02:44:39;10;9;
45990;PMS5003;31721;41.740;-88.000;2022-11-15T02:47:12;7;6;
45990;PMS5003;31721;41.740;-88.000;2022-11-15T02:49:45;11;7;
45990;PMS5003;31721;41.740;-88.000;2022-11-15T02:52:15;7;7;
45990;PMS5003;31721;41.740;-88.000;2022-11-15T02:54:52;10;9;
45990;PMS5003;31721;41.740;-88.000;2022-11-15T02:57:23;9;7;
45990;PMS5003;31721;41.740;-88.000;2022-11-15T03:00:18;7;5;
45990;PMS5003;31721;41.740;-88.000;2022-11-15T03:02:54;9;7;
45990;PMS5003;31721;41.740;-88.000;2022-11-15T03:05:34;9;9;
45990;PMS5003;31721;41.740;-88.000;2022-11-15T03:08:08;14;11;
45990;PMS5003;31721;41.740;-88.000;2022-11-15T03:10:46;9;6;
45990;PMS5003;31721;41.740;-88.000;2022-11-15T03:13:24;7;6;
45990;PMS5003;31721;41.740;-88.000;2022-11-15T03:16:01;9;9;
45990;PMS5003;31721;41.740;-88.000;2022-11-15T03:18:35;6;6;
45990;PMS5003;31721;41.740;-88.000;2022-11-15T03:21:08;5;5;
45990;PMS5003;31721;41.740;-88.000;2022-11-15T03:23:39;7;5;
45990;PMS5003;31721;41.740;-88.000;2022-11-15T03:26:09;9;6;
45990;PMS5003;31721;41.740;-88.000;2022-11-15T03:28:41;13;11;
45990;PMS5003;31721;41.740;-88.000;2022-11-15T03:31:16;9;6;
45990;PMS5003;31721;41.740;-88.000;2022-11-15T03:33:48;9;6;
45990;PMS5003;31721;41.740;-88.000;2022-11-15T03:36:17;10;10;
45990;PMS5003;31721;41.740;-88.000;2022-11-15T03:38:45;15;11;
45990;PMS5003;31721;41.740;-88.000;2022-11-15T03:41:15;9;9;
45990;PMS5003;31721;41.740;-88.000;2022-11-15T03:43:51;9;7;
45990;PMS5003;31721;41.740;-88.000;2022-11-15T03:46:25;11;11;
45990;PMS5003;31721;41.740;-88.000;2022-11-15T03:49:00;9;9;
45990;PMS5003;31721;41.740;-88.000;2022-11-15T03:51:33;9;9;
45990;PMS5003;31721;41.740;-88.000;2022-11-15T03:54:02;7;6;
45990;PMS5003;31721;41.740;-88.000;2022-11-15T03:56:30;10;9;
45990;PMS5003;31721;41.740;-88.000;2022-11-15T03:58:58;6;6;
45990;PMS5003;31721;41.740;-88.000;2022-11-15T04:01:26;10;7;
45990;PMS5003;31721;41.740;-88.000;2022-11-15T04:03:54;10;10;
45990;PMS5003;31721;41.740;-88.000;2022-11-15T04:06:23;6;5;
45990;PMS5003;31721;41.740;-88.000;2022-11-15T04:08:51;3;3;
45990;PMS5003;31721;41.740;-88.000;2022-11-15T04:11:19;11;11;
45990;PMS5003;31721;41.740;-88.000;2022-11-15T04:13:47;7;6;
45990;PMS5003;31721;41.740;-88.000;2022-11-15T04:16:15;6;6;
45990;PMS5003;31721;41.740;-88.000;2022-11-15T04:18:43;3;3;
45990;PMS5003;31721;41.740;-88.000;2022-11-15T04:21:10;6;5;
45990;PMS5003;31721;41.740;-88.000;2022-11-15T04:23:38;6;6;
45990;PMS5003;31721;41.740;-88.000;2022-11-15T04:26:07;6;6;
45990;PMS5003;31721;41.740;-88.000;2022-11-15T04:28:36;7;6;
45990;PMS5003;31721;41.740;-88.000;2022-11-15T04:31:05;7;6;
45990;PMS5003;31721;41.740;-88.000;2022-11-15T04:33:33;5;3;
45990;PMS5003;31721;41.740;-88.000;2022-11-15T04:36:00;11;7;
45990;PMS5003;31721;41.740;-88.000;2022-11-15T04:38:28;5;5;
45990;PMS5003;31721;41.740;-88.000;2022-11-15T04:40:55;5;3;
45990;PMS5003;31721;41.740;-88.000;2022-11-15T04:43:23;7;6;
45990;PMS5003;31721;41.740;-88.000;2022-11-15T04:45:50;6;6;
45990;PMS5003;31721;41.740;-88.000;2022-11-15T04:48:18;6;5;
45990;PMS5003;31721;41.740;-88.000;2022-11-15T04:50:47;5;3;
45990;PMS5003;31721;41.740;-88.000;2022-11-15T04:53:15;9;7;
45990;PMS5003;31721;41.740;-88.000;2022-11-15T04:55:44;5;5;
45990;PMS5003;31721;41.740;-88.000;2022-11-15T04:58:12;6;6;
45990;PMS5003;31721;41.740;-88.000;2022-11-15T05:00:40;6;5;
45990;PMS5003;31721;41.740;-88.000;2022-11-15T05:03:09;14;12;
45990;PMS5003;31721;41.740;-88.000;2022-11-15T05:05:37;10;6;
45990;PMS5003;31721;41.740;-88.000;2022-11-15T05:08:05;9;5;
45990;PMS5003;31721;41.740;-88.000;2022-11-15T05:10:32;6;6;
45990;PMS5003;31721;41.740;-88.000;2022-11-15T05:13:01;5;5;
45990;PMS5003;31721;41.740;-88.000;2022-11-15T05:15:28;7;6;
45990;PMS5003;31721;41.740;-88.000;2022-11-15T05:17:57;11;10;
45990;PMS5003;31721;41.740;-88.000;2022-11-15T05:20:25;14;12;
45990;PMS5003;31721;41.740;-88.000;2022-11-15T05:22:53;15;12;
45990;PMS5003;31721;41.740;-88.000;2022-11-15T05:25:21;21;19;
45990;PMS5003;31721;41.740;-88.000;2022-11-15T05:27:50;23;19;
45990;PMS5003;31721;41.740;-88.000;2022-11-15T05:30:18;17;14;
45990;PMS5003;31721;41.740;-88.000;2022-11-15T05:32:46;16;15;
45990;PMS5003;31721;41.740;-88.000;2022-11-15T05:35:17;16;16;
45990;PMS5003;31721;41.740;-88.000;2022-11-15T05:37:50;12;11;
45990;PMS5003;31721;41.740;-88.000;2022-11-15T05:40:18;12;11;
45990;PMS5003;31721;41.740;-88.000;2022-11-15T05:42:46;14;11;
45990;PMS5003;31721;41.740;-88.000;2022-11-15T05:45:14;23;15;
45990;PMS5003;31721;41.740;-88.000;2022-11-15T05:47:43;10;10;
45990;PMS5003;31721;41.740;-88.000;2022-11-15T05:50:12;10;10;
45990;PMS5003;31721;41.740;-88.000;2022-11-15T05:52:43;7;7;
45990;PMS5003;31721;41.740;-88.000;2022-11-15T05:55:12;7;7;
45990;PMS5003;31721;41.740;-88.000;2022-11-15T05:57:41;6;6;
45990;PMS5003;31721;41.740;-88.000;2022-11-15T06:00:10;11;7;
45990;PMS5003;31721;41.740;-88.000;2022-11-15T06:02:39;7;6;
45990;PMS5003;31721;41.740;-88.000;2022-11-15T06:05:07;14;12;
45990;PMS5003;31721;41.740;-88.000;2022-11-15T06:07:34;5;3;
45990;PMS5003;31721;41.740;-88.000;2022-11-15T06:10:02;6;5;
45990;PMS5003;31721;41.740;-88.000;2022-11-15T06:12:31;8;7;
45990;PMS5003;31721;41.740;-88.000;2022-11-15T06:14:59;7;6;
45990;PMS5003;31721;41.740;-88.000;2022-11-15T06:17:26;10;8;
45990;PMS5003;31721;41.740;-88.000;2022-11-15T06:19:54;12;11;
45990;PMS5003;31721;41.740;-88.000;2022-11-15T06:22:22;10;8;
45990;PMS5003;31721;41.740;-88.000;2022-11-15T06:24:49;6;6;
45990;PMS5003;31721;41.740;-88.000;2022-11-15T06:27:17;8;6;
45990;PMS5003;31721;41.740;-88.000;2022-11-15T06:29:45;8;8;
45990;PMS5003;31721;41.740;-88.000;2022-11-15T06:32:13;12;8;
45990;PMS5003;31721;41.740;-88.000;2022-11-15T06:34:40;10;7;
45990;PMS5003;31721;41.740;-88.000;2022-11-15T06:37:08;11;8;
45990;PMS5003;31721;41.740;-88.000;2022-11-15T06:39:35;14;11;
45990;PMS5003;31721;41.740;-88.000;2022-11-15T06:42:03;12;11;
45990;PMS5003;31721;41.740;-88.000;2022-11-15T06:44:31;10;10;
45990;PMS5003;31721;41.740;-88.000;2022-11-15T06:46:59;7;7;
45990;PMS5003;31721;41.740;-88.000;2022-11-15T06:49:27;15;14;
45990;PMS5003;31721;41.740;-88.000;2022-11-15T06:51:54;8;7;
45990;PMS5003;31721;41.740;-88.000;2022-11-15T06:54:22;7;7;
45990;PMS5003;31721;41.740;-88.000;2022-11-15T06:56:49;16;15;
45990;PMS5003;31721;41.740;-88.000;2022-11-15T06:59:17;16;14;
45990;PMS5003;31721;41.740;-88.000;2022-11-15T07:01:45;14;12;
45990;PMS5003;31721;41.740;-88.000;2022-11-15T07:04:13;12;10;
45990;PMS5003;31721;41.740;-88.000;2022-11-15T07:06:41;14;10;
45990;PMS5003;31721;41.740;-88.000;2022-11-15T07:09:09;12;11;
45990;PMS5003;31721;41.740;-88.000;2022-11-15T07:11:36;12;10;
45990;PMS5003;31721;41.740;-88.000;2022-11-15T07:14:05;8;8;
45990;PMS5003;31721;41.740;-88.000;2022-11-15T07:16:33;16;11;
45990;PMS5003;31721;41.740;-88.000;2022-11-15T07:19:01;10;7;
45990;PMS5003;31721;41.740;-88.000;2022-11-15T07:21:29;11;8;
45990;PMS5003;31721;41.740;-88.000;2022-11-15T07:23:57;17;12;
45990;PMS5003;31721;41.740;-88.000;2022-11-15T07:26:25;11;8;
45990;PMS5003;31721;41.740;-88.000;2022-11-15T07:28:52;8;8;
45990;PMS5003;31721;41.740;-88.000;2022-11-15T07:31:21;8;7;
45990;PMS5003;31721;41.740;-88.000;2022-11-15T07:33:49;16;11;
45990;PMS5003;31721;41.740;-88.000;2022-11-15T07:36:17;11;10;
45990;PMS5003;31721;41.740;-88.000;2022-11-15T07:38:45;11;11;
45990;PMS5003;31721;41.740;-88.000;2022-11-15T07:41:13;11;11;
45990;PMS5003;31721;41.740;-88.000;2022-11-15T07:43:40;19;16;
45990;PMS5003;31721;41.740;-88.000;2022-11-15T07:46:08;20;12;
45990;PMS5003;31721;41.740;-88.000;2022-11-15T07:48:36;10;8;
45990;PMS5003;31721;41.740;-88.000;2022-11-15T07:51:04;16;12;
45990;PMS5003;31721;41.740;-88.000;2022-11-15T07:53:33;14;10;
45990;PMS5003;31721;41.740;-88.000;2022-11-15T07:56:01;8;7;
45990;PMS5003;31721;41.740;-88.000;2022-11-15T07:58:29;10;8;
45990;PMS5003;31721;41.740;-88.000;2022-11-15T08:00:57;12;10;
45990;PMS5003;31721;41.740;-88.000;2022-11-15T08:03:25;15;12;
45990;PMS5003;31721;41.740;-88.000;2022-11-15T08:05:52;17;14;
45990;PMS5003;31721;41.740;-88.000;2022-11-15T08:08:20;15;15;
45990;PMS5003;31721;41.740;-88.000;2022-11-15T08:10:48;28;25;
45990;PMS5003;31721;41.740;-88.000;2022-11-15T08:13:16;21;21;
45990;PMS5003;31721;41.740;-88.000;2022-11-15T08:15:43;25;21;
45990;PMS5003;31721;41.740;-88.000;2022-11-15T08:18:12;30;22;
45990;PMS5003;31721;41.740;-88.000;2022-11-15T08:20:41;24;21;
45990;PMS5003;31721;41.740;-88.000;2022-11-15T08:23:10;22;20;
45990;PMS5003;31721;41.740;-88.000;2022-11-15T08:25:38;25;22;
45990;PMS5003;31721;41.740;-88.000;2022-11-15T08:28:06;21;15;
45990;PMS5003;31721;41.740;-88.000;2022-11-15T08:30:35;15;15;
45990;PMS5003;31721;41.740;-88.000;2022-11-15T08:33:04;21;17;
45990;PMS5003;31721;41.740;-88.000;2022-11-15T08:35:32;24;21;
45990;PMS5003;31721;41.740;-88.000;2022-11-15T08:38:01;34;29;
45990;PMS5003;31721;41.740;-88.000;2022-11-15T08:40:28;31;27;
45990;PMS5003;31721;41.740;-88.000;2022-11-15T08:42:56;27;22;
45990;PMS5003;31721;41.740;-88.000;2022-11-15T08:45:24;21;15;
45990;PMS5003;31721;41.740;-88.000;2022-11-15T08:47:52;24;20;
45990;PMS5003;31721;41.740;-88.000;2022-11-15T08:50:20;35;26;
45990;PMS5003;31721;41.740;-88.000;2022-11-15T08:52:48;12;12;
45990;PMS5003;31721;41.740;-88.000;2022-11-15T08:55:16;14;11;
45990;PMS5003;31721;41.740;-88.000;2022-11-15T08:57:43;12;10;
45990;PMS5003;31721;41.740;-88.000;2022-11-15T09:00:12;16;14;
45990;PMS5003;31721;41.740;-88.000;2022-11-15T09:02:41;13;10;
45990;PMS5003;31721;41.740;-88.000;2022-11-15T09:05:08;17;15;
45990;PMS5003;31721;41.740;-88.000;2022-11-15T09:07:36;8;8;
45990;PMS5003;31721;41.740;-88.000;2022-11-15T09:10:04;7;7;
45990;PMS5003;31721;41.740;-88.000;2022-11-15T09:12:33;8;8;
45990;PMS5003;31721;41.740;-88.000;2022-11-15T09:15:01;10;7;
45990;PMS5003;31721;41.740;-88.000;2022-11-15T09:17:29;10;10;
45990;PMS5003;31721;41.740;-88.000;2022-11-15T09:19:57;12;11;
45990;PMS5003;31721;41.740;-88.000;2022-11-15T09:22:24;16;11;
45990;PMS5003;31721;41.740;-88.000;2022-11-15T09:24:52;10;10;
45990;PMS5003;31721;41.740;-88.000;2022-11-15T09:27:19;20;20;
45990;PMS5003;31721;41.740;-88.000;2022-11-15T09:29:47;18;16;
45990;PMS5003;31721;41.740;-88.000;2022-11-15T09:32:15;11;11;
45990;PMS5003;31721;41.740;-88.000;2022-11-15T09:34:42;20;14;
45990;PMS5003;31721;41.740;-88.000;2022-11-15T09:37:10;13;13;
45990;PMS5003;31721;41.740;-88.000;2022-11-15T09:39:38;17;14;
45990;PMS5003;31721;41.740;-88.000;2022-11-15T09:42:10;19;18;
45990;PMS5003;31721;41.740;-88.000;2022-11-15T09:44:55;11;11;
45990;PMS5003;31721;41.740;-88.000;2022-11-15T09:47:38;22;17;
45990;PMS5003;31721;41.740;-88.000;2022-11-15T09:50:27;19;19;
45990;PMS5003;31721;41.740;-88.000;2022-11-15T09:53:00;14;13;
45990;PMS5003;31721;41.740;-88.000;2022-11-15T09:55:31;15;13;
45990;PMS5003;31721;41.740;-88.000;2022-11-15T09:58:07;14;13;
45990;PMS5003;31721;41.740;-88.000;2022-11-15T10:00:47;17;17;
45990;PMS5003;31721;41.740;-88.000;2022-11-15T10:03:19;18;13;
45990;PMS5003;31721;41.740;-88.000;2022-11-15T10:05:55;23;21;
45990;PMS5003;31721;41.740;-88.000;2022-11-15T10:08:30;18;17;
45990;PMS5003;31721;41.740;-88.000;2022-11-15T10:11:06;34;23;
45990;PMS5003;31721;41.740;-88.000;2022-11-15T10:13:37;21;21;
45990;PMS5003;31721;41.740;-88.000;2022-11-15T10:16:12;24;18;
45990;PMS5003;31721;41.740;-88.000;2022-11-15T10:18:52;18;17;
45990;PMS5003;31721;41.740;-88.000;2022-11-15T10:21:29;27;22;
45990;PMS5003;31721;41.740;-88.000;2022-11-15T10:24:10;22;18;
45990;PMS5003;31721;41.740;-88.000;2022-11-15T10:26:43;21;18;
45990;PMS5003;31721;41.740;-88.000;2022-11-15T10:29:17;19;15;
45990;PMS5003;31721;41.740;-88.000;2022-11-15T10:31:46;23;21;
45990;PMS5003;31721;41.740;-88.000;2022-11-15T10:34:15;25;21;
45990;PMS5003;31721;41.740;-88.000;2022-11-15T10:36:46;15;15;
45990;PMS5003;31721;41.740;-88.000;2022-11-15T10:39:20;21;17;
45990;PMS5003;31721;41.740;-88.000;2022-11-15T10:41:48;18;15;
45990;PMS5003;31721;41.740;-88.000;2022-11-15T10:44:18;27;21;
45990;PMS5003;31721;41.740;-88.000;2022-11-15T10:46:52;15;13;
45990;PMS5003;31721;41.740;-88.000;2022-11-15T10:49:34;16;15;
45990;PMS5003;31721;41.740;-88.000;2022-11-15T10:52:04;20;16;
45990;PMS5003;31721;41.740;-88.000;2022-11-15T10:54:47;25;21;
45990;PMS5003;31721;41.740;-88.000;2022-11-15T10:57:18;22;21;
45990;PMS5003;31721;41.740;-88.000;2022-11-15T10:59:49;22;18;
45990;PMS5003;31721;41.740;-88.000;2022-11-15T11:02:35;34;27;
45990;PMS5003;31721;41.740;-88.000;2022-11-15T11:05:06;25;23;
45990;PMS5003;31721;41.740;-88.000;2022-11-15T11:07:56;22;19;
45990;PMS5003;31721;41.740;-88.000;2022-11-15T11:10:25;26;20;
45990;PMS5003;31721;41.740;-88.000;2022-11-15T11:12:53;23;19;
45990;PMS5003;31721;41.740;-88.000;2022-11-15T11:15:22;22;17;
45990;PMS5003;31721;41.740;-88.000;2022-11-15T11:17:57;27;22;
45990;PMS5003;31721;41.740;-88.000;2022-11-15T11:20:32;27;21;
45990;PMS5003;31721;41.740;-88.000;2022-11-15T11:23:15;23;19;
45990;PMS5003;31721;41.740;-88.000;2022-11-15T11:25:52;19;17;
45990;PMS5003;31721;41.740;-88.000;2022-11-15T11:28:33;29;25;
45990;PMS5003;31721;41.740;-88.000;2022-11-15T11:31:13;23;18;
45990;PMS5003;31721;41.740;-88.000;2022-11-15T11:33:55;13;13;
45990;PMS5003;31721;41.740;-88.000;2022-11-15T11:36:34;15;15;
45990;PMS5003;31721;41.740;-88.000;2022-11-15T11:39:16;23;23;
45990;PMS5003;31721;41.740;-88.000;2022-11-15T11:41:58;19;15;
45990;PMS5003;31721;41.740;-88.000;2022-11-15T11:44:34;22;17;
45990;PMS5003;31721;41.740;-88.000;2022-11-15T11:47:10;17;13;
45990;PMS5003;31721;41.740;-88.000;2022-11-15T11:49:43;21;17;
45990;PMS5003;31721;41.740;-88.000;2022-11-15T11:52:17;17;15;
45990;PMS5003;31721;41.740;-88.000;2022-11-15T11:54:54;21;15;
45990;PMS5003;31721;41.740;-88.000;2022-11-15T11:57:31;21;15;
45990;PMS5003;31721;41.740;-88.000;2022-11-15T12:00:17;25;21;
45990;PMS5003;31721;41.740;-88.000;2022-11-15T12:02:49;19;18;
45990;PMS5003;31721;41.740;-88.000;2022-11-15T12:05:30;19;15;
45990;PMS5003;31721;41.740;-88.000;2022-11-15T12:08:03;17;14;
45990;PMS5003;31721;41.740;-88.000;2022-11-15T12:10:42;18;14;
45990;PMS5003;31721;41.740;-88.000;2022-11-15T12:13:16;17;17;
45990;PMS5003;31721;41.740;-88.000;2022-11-15T12:15:47;15;15;
45990;PMS5003;31721;41.740;-88.000;2022-11-15T12:18:23;22;17;
45990;PMS5003;31721;41.740;-88.000;2022-11-15T12:20:52;25;19;
45990;PMS5003;31721;41.740;-88.000;2022-11-15T12:23:24;22;19;
45990;PMS5003;31721;41.740;-88.000;2022-11-15T12:25:57;25;22;
45990;PMS5003;31721;41.740;-88.000;2022-11-15T12:28:33;34;30;
45990;PMS5003;31721;41.740;-88.000;2022-11-15T12:31:10;19;18;
45990;PMS5003;31721;41.740;-88.000;2022-11-15T12:33:43;29;21;
45990;PMS5003;31721;41.740;-88.000;2022-11-15T12:36:30;18;18;
45990;PMS5003;31721;41.740;-88.000;2022-11-15T12:39:03;21;17;
45990;PMS5003;31721;41.740;-88.000;2022-11-15T12:41:32;21;19;
45990;PMS5003;31721;41.740;-88.000;2022-11-15T12:44:01;23;18;
45990;PMS5003;31721;41.740;-88.000;2022-11-15T12:47:04;26;24;
45990;PMS5003;31721;41.740;-88.000;2022-11-15T12:49:50;28;22;
45990;PMS5003;31721;41.740;-88.000;2022-11-15T12:52:19;24;21;
45990;PMS5003;31721;41.740;-88.000;2022-11-15T12:55:28;24;24;
45990;PMS5003;31721;41.740;-88.000;2022-11-15T12:57:58;28;19;
45990;PMS5003;31721;41.740;-88.000;2022-11-15T13:00:53;23;19;
45990;PMS5003;31721;41.740;-88.000;2022-11-15T13:03:23;27;23;
45990;PMS5003;31721;41.740;-88.000;2022-11-15T13:05:55;26;24;
45990;PMS5003;31721;41.740;-88.000;2022-11-15T13:08:43;30;26;
45990;PMS5003;31721;41.740;-88.000;2022-11-15T13:11:48;28;26;
45990;PMS5003;31721;41.740;-88.000;2022-11-15T13:14:50;27;24;
45990;PMS5003;31721;41.740;-88.000;2022-11-15T13:17:23;29;24;
45990;PMS5003;31721;41.740;-88.000;2022-11-15T13:19:58;38;32;
45990;PMS5003;31721;41.740;-88.000;2022-11-15T13:22:28;19;18;
45990;PMS5003;31721;41.740;-88.000;2022-11-15T13:25:14;27;24;
45990;PMS5003;31721;41.740;-88.000;2022-11-15T13:27:45;32;20;
45990;PMS5003;31721;41.740;-88.000;2022-11-15T13:30:15;40;35;
45990;PMS5003;31721;41.740;-88.000;2022-11-15T13:32:47;24;23;
45990;PMS5003;31721;41.740;-88.000;2022-11-15T13:35:19;41;35;
45990;PMS5003;31721;41.740;-88.000;2022-11-15T13:37:49;36;33;
45990;PMS5003;31721;41.740;-88.000;2022-11-15T13:40:23;33;29;
45990;PMS5003;31721;41.740;-88.000;2022-11-15T13:42:52;40;32;
45990;PMS5003;31721;41.740;-88.000;2022-11-15T13:45:22;33;27;
45990;PMS5003;31721;41.740;-88.000;2022-11-15T13:47:52;33;30;
45990;PMS5003;31721;41.740;-88.000;2022-11-15T13:50:22;29;25;
45990;PMS5003;31721;41.740;-88.000;2022-11-15T13:52:56;36;29;
45990;PMS5003;31721;41.740;-88.000;2022-11-15T13:55:26;30;25;
45990;PMS5003;31721;41.740;-88.000;2022-11-15T13:57:57;35;33;
45990;PMS5003;31721;41.740;-88.000;2022-11-15T14:00:30;23;23;
45990;PMS5003;31721;41.740;-88.000;2022-11-15T14:03:05;41;37;
45990;PMS5003;31721;41.740;-88.000;2022-11-15T14:05:38;34;33;
45990;PMS5003;31721;41.740;-88.000;2022-11-15T14:08:20;30;28;
45990;PMS5003;31721;41.740;-88.000;2022-11-15T14:11:05;34;32;
45990;PMS5003;31721;41.740;-88.000;2022-11-15T14:13:35;35;32;
45990;PMS5003;31721;41.740;-88.000;2022-11-15T14:16:19;29;26;
45990;PMS5003;31721;41.740;-88.000;2022-11-15T14:18:49;34;30;
45990;PMS5003;31721;41.740;-88.000;2022-11-15T14:21:19;32;29;
45990;PMS5003;31721;41.740;-88.000;2022-11-15T14:23:47;28;24;
45990;PMS5003;31721;41.740;-88.000;2022-11-15T14:26:32;24;21;
45990;PMS5003;31721;41.740;-88.000;2022-11-15T14:29:21;39;23;
45990;PMS5003;31721;41.740;-88.000;2022-11-15T14:31:49;25;20;
45990;PMS5003;31721;41.740;-88.000;2022-11-15T14:34:18;34;28;
45990;PMS5003;31721;41.740;-88.000;2022-11-15T14:36:45;23;19;
45990;PMS5003;31721;41.740;-88.000;2022-11-15T14:39:13;23;20;
45990;PMS5003;31721;41.740;-88.000;2022-11-15T14:41:42;35;29;
45990;PMS5003;31721;41.740;-88.000;2022-11-15T14:44:09;25;21;
45990;PMS5003;31721;41.740;-88.000;2022-11-15T14:46:37;20;19;
45990;PMS5003;31721;41.740;-88.000;2022-11-15T14:49:05;28;24;
45990;PMS5003;31721;41.740;-88.000;2022-11-15T14:51:32;34;29;
45990;PMS5003;31721;41.740;-88.000;2022-11-15T14:54:00;30;25;
45990;PMS5003;31721;41.740;-88.000;2022-11-15T14:56:28;25;24;
45990;PMS5003;31721;41.740;-88.000;2022-11-15T14:58:56;25;24;
45990;PMS5003;31721;41.740;-88.000;2022-11-15T15:01:24;26;26;
45990;PMS5003;31721;41.740;-88.000;2022-11-15T15:03:53;25;21;
45990;PMS5003;31721;41.740;-88.000;2022-11-15T15:06:21;25;24;
45990;PMS5003;31721;41.740;-88.000;2022-11-15T15:08:49;35;29;
45990;PMS5003;31721;41.740;-88.000;2022-11-15T15:11:18;27;25;
45990;PMS5003;31721;41.740;-88.000;2022-11-15T15:13:49;34;26;
45990;PMS5003;31721;41.740;-88.000;2022-11-15T15:16:16;31;25;
45990;PMS5003;31721;41.740;-88.000;2022-11-15T15:18:44;30;26;
45990;PMS5003;31721;41.740;-88.000;2022-11-15T15:21:16;31;25;
45990;PMS5003;31721;41.740;-88.000;2022-11-15T15:23:47;31;26;
45990;PMS5003;31721;41.740;-88.000;2022-11-15T15:26:15;32;27;
45990;PMS5003;31721;41.740;-88.000;2022-11-15T15:28:44;22;21;
45990;PMS5003;31721;41.740;-88.000;2022-11-15T15:31:12;31;29;
45990;PMS5003;31721;41.740;-88.000;2022-11-15T15:33:40;33;28;
45990;PMS5003;31721;41.740;-88.000;2022-11-15T15:36:09;28;28;
45990;PMS5003;31721;41.740;-88.000;2022-11-15T15:38:38;23;20;
45990;PMS5003;31721;41.740;-88.000;2022-11-15T15:41:08;28;25;
45990;PMS5003;31721;41.740;-88.000;2022-11-15T15:43:37;25;23;
45990;PMS5003;31721;41.740;-88.000;2022-11-15T15:46:07;33;30;
45990;PMS5003;31721;41.740;-88.000;2022-11-15T15:48:36;30;24;
45990;PMS5003;31721;41.740;-88.000;2022-11-15T15:51:05;29;26;
45990;PMS5003;31721;41.740;-88.000;2022-11-15T15:53:33;35;25;
45990;PMS5003;31721;41.740;-88.000;2022-11-15T15:56:00;34;34;
45990;PMS5003;31721;41.740;-88.000;2022-11-15T15:58:29;26;23;
45990;PMS5003;31721;41.740;-88.000;2022-11-15T16:00:56;33;30;
45990;PMS5003;31721;41.740;-88.000;2022-11-15T16:03:24;30;22;
45990;PMS5003;31721;41.740;-88.000;2022-11-15T16:05:53;36;30;
45990;PMS5003;31721;41.740;-88.000;2022-11-15T16:08:21;38;30;
45990;PMS5003;31721;41.740;-88.000;2022-11-15T16:10:50;34;30;
45990;PMS5003;31721;41.740;-88.000;2022-11-15T16:13:18;27;22;
45990;PMS5003;31721;41.740;-88.000;2022-11-15T16:15:46;35;30;
45990;PMS5003;31721;41.740;-88.000;2022-11-15T16:18:18;35;27;